sensor_id;sensor_type;location;lat;lon;timestamp;pressure;altitude;pressure_sealevel;temperature;humidity
49945;BME280;35838;49.134;9.212;2023-02-01T01:58:45;100465.81;;;4.81;88.97
49945;BME280;35838;49.134;9.212;2023-02-01T08:00:29;100434.75;;;4.72;87.22
49945;BME280;35838;49.134;9.212;2023-02-01T08:02:15;100433.84;;;4.71;87.57
49945;BME280;35838;49.134;9.212;2023-02-01T08:03:49;100432.19;;;4.73;87.94
49945;BME280;35838;49.134;9.212;2023-02-01T08:05:23;100436.53;;;4.76;88.02
49945;BME280;35838;49.134;9.212;2023-02-01T08:06:56;100434.09;;;4.80;88.04
49945;BME280;35838;49.134;9.212;2023-02-01T08:08:30;100424.44;;;4.72;88.93
49945;BME280;35838;49.134;9.212;2023-02-01T08:10:04;100434.75;;;4.72;89.29
49945;BME280;35838;49.134;9.212;2023-02-01T08:11:41;100438.19;;;4.74;89.17
49945;BME280;35838;49.134;9.212;2023-02-01T08:13:14;100437.25;;;4.70;89.44
49945;BME280;35838;49.134;9.212;2023-02-01T08:14:48;100449.38;;;4.74;89.74
49945;BME280;35838;49.134;9.212;2023-02-01T08:16:24;100449.31;;;4.73;89.71
49945;BME280;35838;49.134;9.212;2023-02-01T08:17:58;100467.91;;;4.62;90.12
49945;BME280;35838;49.134;9.212;2023-02-01T08:19:32;100480.75;;;4.62;90.43
49945;BME280;35838;49.134;9.212;2023-02-01T08:21:07;100466.06;;;4.58;90.54
49945;BME280;35838;49.134;9.212;2023-02-01T08:22:41;100467.78;;;4.59;90.82
49945;BME280;35838;49.134;9.212;2023-02-01T08:24:14;100477.44;;;4.66;90.70
49945;BME280;35838;49.134;9.212;2023-02-01T08:25:48;100475.13;;;4.76;90.42
49945;BME280;35838;49.134;9.212;2023-02-01T08:27:23;100475.09;;;4.74;90.20
49945;BME280;35838;49.134;9.212;2023-02-01T08:28:57;100479.72;;;4.86;90.12
49945;BME280;35838;49.134;9.212;2023-02-01T08:30:31;100483.00;;;4.82;89.52
49945;BME280;35838;49.134;9.212;2023-02-01T08:32:07;100478.69;;;4.81;89.39
49945;BME280;35838;49.134;9.212;2023-02-01T08:33:41;100488.25;;;4.85;89.44
49945;BME280;35838;49.134;9.212;2023-02-01T08:35:15;100486.50;;;4.84;89.30
49945;BME280;35838;49.134;9.212;2023-02-01T08:36:49;100495.84;;;4.80;89.52
49945;BME280;35838;49.134;9.212;2023-02-01T08:38:22;100489.03;;;4.82;89.41
49945;BME280;35838;49.134;9.212;2023-02-01T08:39:56;100484.69;;;4.80;89.10
49945;BME280;35838;49.134;9.212;2023-02-01T08:41:29;100481.25;;;4.81;89.00
49945;BME280;35838;49.134;9.212;2023-02-01T08:43:03;100503.50;;;4.79;89.78
49945;BME280;35838;49.134;9.212;2023-02-01T08:44:34;100491.53;;;4.81;90.05
49945;BME280;35838;49.134;9.212;2023-02-01T08:46:09;100488.91;;;4.78;89.97
49945;BME280;35838;49.134;9.212;2023-02-01T08:47:45;100491.47;;;4.78;89.80
49945;BME280;35838;49.134;9.212;2023-02-01T08:49:20;100492.53;;;4.84;89.46
49945;BME280;35838;49.134;9.212;2023-02-01T08:50:53;100492.53;;;4.84;89.04
49945;BME280;35838;49.134;9.212;2023-02-01T08:52:27;100491.19;;;4.97;88.83
49945;BME280;35838;49.134;9.212;2023-02-01T08:54:00;100495.56;;;5.01;88.65
49945;BME280;35838;49.134;9.212;2023-02-01T08:55:34;100495.56;;;5.01;87.94
49945;BME280;35838;49.134;9.212;2023-02-01T08:57:08;100503.25;;;5.00;87.45
49945;BME280;35838;49.134;9.212;2023-02-01T08:58:42;100497.28;;;5.01;87.40
49945;BME280;35838;49.134;9.212;2023-02-01T09:00:17;100500.84;;;5.06;87.41
49945;BME280;35838;49.134;9.212;2023-02-01T09:01:51;100495.66;;;5.05;87.09
49945;BME280;35838;49.134;9.212;2023-02-01T09:03:27;100498.13;;;5.01;87.12
49945;BME280;35838;49.134;9.212;2023-02-01T09:05:01;100489.75;;;5.09;87.23
49945;BME280;35838;49.134;9.212;2023-02-01T09:06:34;100500.28;;;5.16;86.75
49945;BME280;35838;49.134;9.212;2023-02-01T09:08:08;100489.06;;;5.14;86.49
49945;BME280;35838;49.134;9.212;2023-02-01T09:09:44;100508.84;;;5.17;85.89
49945;BME280;35838;49.134;9.212;2023-02-01T09:11:18;100492.78;;;5.24;85.68
49945;BME280;35838;49.134;9.212;2023-02-01T09:12:52;100497.53;;;5.42;85.91
49945;BME280;35838;49.134;9.212;2023-02-01T09:14:26;100490.03;;;5.50;84.71
49945;BME280;35838;49.134;9.212;2023-02-01T09:15:59;100493.97;;;5.37;83.96
49945;BME280;35838;49.134;9.212;2023-02-01T09:17:33;100488.72;;;5.34;84.11
49945;BME280;35838;49.134;9.212;2023-02-01T09:19:09;100488.84;;;5.39;84.06
49945;BME280;35838;49.134;9.212;2023-02-01T09:20:43;100496.72;;;5.45;83.88
49945;BME280;35838;49.134;9.212;2023-02-01T09:22:16;100507.13;;;5.48;83.41
49945;BME280;35838;49.134;9.212;2023-02-01T09:23:50;100491.53;;;5.42;82.61
49945;BME280;35838;49.134;9.212;2023-02-01T09:25:24;100502.88;;;5.50;82.20
49945;BME280;35838;49.134;9.212;2023-02-01T09:26:58;100501.25;;;5.54;81.73
49945;BME280;35838;49.134;9.212;2023-02-01T09:28:31;100494.38;;;5.53;81.66
49945;BME280;35838;49.134;9.212;2023-02-01T09:30:05;100504.59;;;5.51;81.62
49945;BME280;35838;49.134;9.212;2023-02-01T09:31:39;100502.13;;;5.54;81.90
49945;BME280;35838;49.134;9.212;2023-02-01T09:33:13;100509.81;;;5.53;82.07
49945;BME280;35838;49.134;9.212;2023-02-01T09:34:50;100501.44;;;5.61;81.80
49945;BME280;35838;49.134;9.212;2023-02-01T09:36:24;100510.78;;;5.58;81.85
49945;BME280;35838;49.134;9.212;2023-02-01T09:37:58;100513.38;;;5.58;82.06
49945;BME280;35838;49.134;9.212;2023-02-01T09:39:31;100511.00;;;5.65;82.50
49945;BME280;35838;49.134;9.212;2023-02-01T09:41:07;100515.72;;;6.17;82.45
49945;BME280;35838;49.134;9.212;2023-02-01T09:42:47;100513.25;;;6.20;80.13
49945;BME280;35838;49.134;9.212;2023-02-01T09:44:32;100503.19;;;5.97;79.87
49945;BME280;35838;49.134;9.212;2023-02-01T09:46:15;100519.22;;;5.84;80.79
49945;BME280;35838;49.134;9.212;2023-02-01T09:47:51;100521.16;;;5.59;81.32
49945;BME280;35838;49.134;9.212;2023-02-01T09:49:27;100525.28;;;5.53;82.00
49945;BME280;35838;49.134;9.212;2023-02-01T09:51:04;100515.03;;;5.56;82.24
49945;BME280;35838;49.134;9.212;2023-02-01T09:52:40;100551.72;;;5.47;81.81
49945;BME280;35838;49.134;9.212;2023-02-01T09:54:17;100530.28;;;5.48;81.75
49945;BME280;35838;49.134;9.212;2023-02-01T09:55:52;100529.72;;;5.58;81.89
49945;BME280;35838;49.134;9.212;2023-02-01T09:57:29;100543.16;;;5.48;82.05
49945;BME280;35838;49.134;9.212;2023-02-01T09:59:08;100542.25;;;5.46;82.36
49945;BME280;35838;49.134;9.212;2023-02-01T10:00:44;100542.13;;;5.41;81.93
49945;BME280;35838;49.134;9.212;2023-02-01T10:02:23;100539.44;;;5.38;81.59
49945;BME280;35838;49.134;9.212;2023-02-01T10:03:59;100537.75;;;5.39;82.23
49945;BME280;35838;49.134;9.212;2023-02-01T10:05:41;100544.47;;;5.33;82.43
49945;BME280;35838;49.134;9.212;2023-02-01T10:07:24;100542.78;;;5.34;81.68
49945;BME280;35838;49.134;9.212;2023-02-01T10:09:04;100560.94;;;5.39;81.67
49945;BME280;35838;49.134;9.212;2023-02-01T10:10:40;100559.34;;;5.44;81.08
49945;BME280;35838;49.134;9.212;2023-02-01T10:12:28;100559.28;;;5.41;80.72
49945;BME280;35838;49.134;9.212;2023-02-01T10:14:06;100561.88;;;5.42;80.62
49945;BME280;35838;49.134;9.212;2023-02-01T10:15:48;100560.94;;;5.39;80.44
49945;BME280;35838;49.134;9.212;2023-02-01T10:17:31;100569.59;;;5.41;80.82
49945;BME280;35838;49.134;9.212;2023-02-01T10:19:16;100566.19;;;5.42;79.53
49945;BME280;35838;49.134;9.212;2023-02-01T10:20:57;100564.63;;;5.48;79.69
49945;BME280;35838;49.134;9.212;2023-02-01T10:22:41;100566.41;;;5.51;78.88
49945;BME280;35838;49.134;9.212;2023-02-01T10:24:21;100562.25;;;5.55;78.22
49945;BME280;35838;49.134;9.212;2023-02-01T10:25:58;100562.28;;;5.56;77.24
49945;BME280;35838;49.134;9.212;2023-02-01T10:27:38;100580.31;;;5.58;77.42
49945;BME280;35838;49.134;9.212;2023-02-01T10:29:13;100570.00;;;5.56;77.54
49945;BME280;35838;49.134;9.212;2023-02-01T10:30:48;100567.69;;;5.67;77.63
49945;BME280;35838;49.134;9.212;2023-02-01T10:32:23;100572.97;;;5.72;77.37
49945;BME280;35838;49.134;9.212;2023-02-01T10:33:58;100570.41;;;5.72;77.41
49945;BME280;35838;49.134;9.212;2023-02-01T10:35:33;100575.53;;;5.70;77.60
49945;BME280;35838;49.134;9.212;2023-02-01T10:37:13;100573.13;;;5.78;77.56
49945;BME280;35838;49.134;9.212;2023-02-01T10:38:54;100583.19;;;5.69;77.39
49945;BME280;35838;49.134;9.212;2023-02-01T10:40:29;100564.97;;;5.61;78.12
49945;BME280;35838;49.134;9.212;2023-02-01T10:42:02;100580.44;;;5.62;78.46
49945;BME280;35838;49.134;9.212;2023-02-01T10:43:36;100559.03;;;5.63;78.19
49945;BME280;35838;49.134;9.212;2023-02-01T10:45:12;100560.75;;;5.63;77.86
49945;BME280;35838;49.134;9.212;2023-02-01T10:46:46;100572.81;;;5.65;78.49
49945;BME280;35838;49.134;9.212;2023-02-01T10:48:20;100560.84;;;5.68;78.20
49945;BME280;35838;49.134;9.212;2023-02-01T10:49:55;100562.47;;;5.64;77.80
49945;BME280;35838;49.134;9.212;2023-02-01T10:51:35;100556.53;;;5.67;77.72
49945;BME280;35838;49.134;9.212;2023-02-01T10:53:15;100548.13;;;5.74;78.00
49945;BME280;35838;49.134;9.212;2023-02-01T10:54:52;100561.81;;;5.71;77.67
49945;BME280;35838;49.134;9.212;2023-02-01T10:56:26;100545.94;;;5.89;77.49
49945;BME280;35838;49.134;9.212;2023-02-01T10:58:02;100544.25;;;5.90;76.72
49945;BME280;35838;49.134;9.212;2023-02-01T10:59:36;100537.38;;;5.90;76.34
49945;BME280;35838;49.134;9.212;2023-02-01T11:01:14;100527.09;;;5.92;76.29
49945;BME280;35838;49.134;9.212;2023-02-01T11:02:49;100540.00;;;5.92;74.95
49945;BME280;35838;49.134;9.212;2023-02-01T11:04:22;100520.16;;;5.88;74.34
49945;BME280;35838;49.134;9.212;2023-02-01T11:05:57;100527.00;;;5.87;75.33
49945;BME280;35838;49.134;9.212;2023-02-01T11:07:31;100536.56;;;5.91;75.29
49945;BME280;35838;49.134;9.212;2023-02-01T11:09:10;100516.09;;;5.97;75.34
49945;BME280;35838;49.134;9.212;2023-02-01T11:10:49;100528.00;;;5.92;74.69
49945;BME280;35838;49.134;9.212;2023-02-01T11:12:30;100518.31;;;5.84;74.82
49945;BME280;35838;49.134;9.212;2023-02-01T11:14:10;100530.34;;;5.83;74.66
49945;BME280;35838;49.134;9.212;2023-02-01T11:15:46;100530.47;;;5.89;73.95
49945;BME280;35838;49.134;9.212;2023-02-01T11:17:28;100521.69;;;5.81;73.98
49945;BME280;35838;49.134;9.212;2023-02-01T11:19:02;100513.13;;;5.82;74.39
49945;BME280;35838;49.134;9.212;2023-02-01T11:20:38;100526.69;;;5.75;73.35
49945;BME280;35838;49.134;9.212;2023-02-01T11:22:12;100501.78;;;5.75;73.77
49945;BME280;35838;49.134;9.212;2023-02-01T11:23:47;100505.19;;;5.74;73.73
49945;BME280;35838;49.134;9.212;2023-02-01T11:25:21;100507.66;;;5.70;73.89
49945;BME280;35838;49.134;9.212;2023-02-01T11:26:58;100532.66;;;5.72;74.36
49945;BME280;35838;49.134;9.212;2023-02-01T11:28:33;100499.81;;;5.65;74.07
49945;BME280;35838;49.134;9.212;2023-02-01T11:30:13;100504.25;;;5.71;73.98
49945;BME280;35838;49.134;9.212;2023-02-01T11:31:48;100496.34;;;5.63;73.78
49945;BME280;35838;49.134;9.212;2023-02-01T11:33:23;100480.97;;;5.66;74.05
49945;BME280;35838;49.134;9.212;2023-02-01T11:35:01;100482.72;;;5.69;73.94
49945;BME280;35838;49.134;9.212;2023-02-01T11:36:35;100482.72;;;5.69;74.10
49945;BME280;35838;49.134;9.212;2023-02-01T11:38:18;100475.00;;;5.69;74.23
49945;BME280;35838;49.134;9.212;2023-02-01T11:39:53;100471.38;;;5.60;73.68
49945;BME280;35838;49.134;9.212;2023-02-01T11:41:27;100479.22;;;5.65;73.66
49945;BME280;35838;49.134;9.212;2023-02-01T11:43:12;100486.19;;;5.69;73.69
49945;BME280;35838;49.134;9.212;2023-02-01T11:44:47;100474.88;;;5.62;73.23
49945;BME280;35838;49.134;9.212;2023-02-01T11:46:22;100481.84;;;5.67;73.25
49945;BME280;35838;49.134;9.212;2023-02-01T11:47:56;100472.63;;;5.76;72.76
49945;BME280;35838;49.134;9.212;2023-02-01T11:49:31;100473.53;;;5.77;72.46
49945;BME280;35838;49.134;9.212;2023-02-01T11:51:08;100473.34;;;5.71;72.61
49945;BME280;35838;49.134;9.212;2023-02-01T11:52:51;100473.69;;;5.85;72.77
49945;BME280;35838;49.134;9.212;2023-02-01T11:54:32;100462.59;;;5.87;72.87
49945;BME280;35838;49.134;9.212;2023-02-01T11:56:11;100468.41;;;5.78;72.87
49945;BME280;35838;49.134;9.212;2023-02-01T11:57:50;100466.41;;;5.67;73.40
49945;BME280;35838;49.134;9.212;2023-02-01T11:59:36;100464.22;;;5.84;73.28
49945;BME280;35838;49.134;9.212;2023-02-01T12:01:18;100472.50;;;5.70;73.52
49945;BME280;35838;49.134;9.212;2023-02-01T12:03:02;100468.09;;;5.66;74.05
49945;BME280;35838;49.134;9.212;2023-02-01T12:04:42;100462.31;;;5.76;74.08
49945;BME280;35838;49.134;9.212;2023-02-01T12:06:18;100464.91;;;5.76;73.71
49945;BME280;35838;49.134;9.212;2023-02-01T12:08:03;100456.56;;;5.87;73.72
49945;BME280;35838;49.134;9.212;2023-02-01T12:11:37;100467.06;;;5.94;73.24
49945;BME280;35838;49.134;9.212;2023-02-01T12:13:20;100462.16;;;6.04;73.12
49945;BME280;35838;49.134;9.212;2023-02-01T12:16:49;100471.91;;;5.82;72.14
49945;BME280;35838;49.134;9.212;2023-02-01T12:20:21;100475.28;;;5.79;72.17
49945;BME280;35838;49.134;9.212;2023-02-01T12:21:59;100464.88;;;5.75;72.56
49945;BME280;35838;49.134;9.212;2023-02-01T12:23:42;100487.28;;;5.79;72.54
49945;BME280;35838;49.134;9.212;2023-02-01T12:25:21;100480.38;;;5.78;72.78
49945;BME280;35838;49.134;9.212;2023-02-01T12:27:01;100477.81;;;5.78;72.97
49945;BME280;35838;49.134;9.212;2023-02-01T12:28:42;100473.34;;;5.71;72.82
49945;BME280;35838;49.134;9.212;2023-02-01T12:30:28;100479.78;;;5.88;73.19
49945;BME280;35838;49.134;9.212;2023-02-01T12:32:15;100470.09;;;5.78;73.44
49945;BME280;35838;49.134;9.212;2023-02-01T12:33:58;100466.44;;;5.70;73.34
49945;BME280;35838;49.134;9.212;2023-02-01T12:35:40;100465.69;;;5.72;72.96
49945;BME280;35838;49.134;9.212;2023-02-01T12:37:21;100477.81;;;5.78;73.20
49945;BME280;35838;49.134;9.212;2023-02-01T12:38:57;100459.72;;;5.75;72.64
49945;BME280;35838;49.134;9.212;2023-02-01T12:40:42;100454.69;;;5.79;73.22
49945;BME280;35838;49.134;9.212;2023-02-01T12:42:18;100460.59;;;5.75;73.04
49945;BME280;35838;49.134;9.212;2023-02-01T12:43:53;100480.34;;;5.75;73.09
49945;BME280;35838;49.134;9.212;2023-02-01T12:45:30;100469.09;;;5.71;72.69
49945;BME280;35838;49.134;9.212;2023-02-01T12:47:08;100468.38;;;5.77;72.57
49945;BME280;35838;49.134;9.212;2023-02-01T12:48:51;100464.06;;;5.76;72.93
49945;BME280;35838;49.134;9.212;2023-02-01T12:50:28;100449.69;;;5.87;73.24
49945;BME280;35838;49.134;9.212;2023-02-01T12:52:04;100453.28;;;5.92;72.39
49945;BME280;35838;49.134;9.212;2023-02-01T12:53:44;100485.84;;;5.90;72.12
49945;BME280;35838;49.134;9.212;2023-02-01T12:55:21;100448.94;;;5.90;72.67
49945;BME280;35838;49.134;9.212;2023-02-01T12:56:56;100450.69;;;5.92;72.83
49945;BME280;35838;49.134;9.212;2023-02-01T12:58:32;100455.13;;;5.98;72.33
49945;BME280;35838;49.134;9.212;2023-02-01T13:00:13;100442.31;;;6.00;72.44
49945;BME280;35838;49.134;9.212;2023-02-01T13:01:53;100438.91;;;6.02;71.92
49945;BME280;35838;49.134;9.212;2023-02-01T13:03:32;100438.88;;;5.99;71.03
49945;BME280;35838;49.134;9.212;2023-02-01T13:05:18;100453.56;;;6.05;71.04
49945;BME280;35838;49.134;9.212;2023-02-01T13:06:53;100432.91;;;6.02;70.85
49945;BME280;35838;49.134;9.212;2023-02-01T13:08:30;100439.94;;;6.09;70.97
49945;BME280;35838;49.134;9.212;2023-02-01T13:10:11;100446.63;;;6.01;70.71
49945;BME280;35838;49.134;9.212;2023-02-01T13:11:47;100440.41;;;5.92;71.27
49945;BME280;35838;49.134;9.212;2023-02-01T13:13:22;100429.09;;;5.87;71.68
49945;BME280;35838;49.134;9.212;2023-02-01T13:14:58;100435.06;;;5.86;71.17
49945;BME280;35838;49.134;9.212;2023-02-01T13:16:35;100444.41;;;5.81;71.13
49945;BME280;35838;49.134;9.212;2023-02-01T13:18:13;100424.72;;;5.83;71.38
49945;BME280;35838;49.134;9.212;2023-02-01T13:19:49;100414.63;;;5.92;71.17
49945;BME280;35838;49.134;9.212;2023-02-01T13:21:29;100417.94;;;5.88;70.94
49945;BME280;35838;49.134;9.212;2023-02-01T13:23:07;100411.84;;;5.83;71.07
49945;BME280;35838;49.134;9.212;2023-02-01T13:24:42;100411.06;;;5.87;71.27
49945;BME280;35838;49.134;9.212;2023-02-01T13:26:17;100414.47;;;5.86;70.94
49945;BME280;35838;49.134;9.212;2023-02-01T13:27:52;100423.94;;;5.87;71.36
49945;BME280;35838;49.134;9.212;2023-02-01T13:29:26;100405.19;;;5.93;71.31
49945;BME280;35838;49.134;9.212;2023-02-01T13:32:54;100403.50;;;5.93;71.67
49945;BME280;35838;49.134;9.212;2023-02-01T13:36:32;100396.97;;;6.08;71.82
49945;BME280;35838;49.134;9.212;2023-02-01T13:38:15;100404.78;;;6.11;71.19
49945;BME280;35838;49.134;9.212;2023-02-01T13:41:50;100394.91;;;6.33;70.77
49945;BME280;35838;49.134;9.212;2023-02-01T13:43:26;100396.34;;;6.18;70.35
49945;BME280;35838;49.134;9.212;2023-02-01T13:45:01;100402.19;;;6.11;70.76
49945;BME280;35838;49.134;9.212;2023-02-01T13:46:38;100392.09;;;6.20;70.40
49945;BME280;35838;49.134;9.212;2023-02-01T13:48:18;100394.38;;;6.08;70.02
49945;BME280;35838;49.134;9.212;2023-02-01T13:49:53;100389.09;;;6.02;70.56
49945;BME280;35838;49.134;9.212;2023-02-01T13:51:35;100385.81;;;6.09;70.75
49945;BME280;35838;49.134;9.212;2023-02-01T13:53:13;100393.69;;;6.15;70.86
49945;BME280;35838;49.134;9.212;2023-02-01T13:54:49;100389.22;;;6.06;71.11
49945;BME280;35838;49.134;9.212;2023-02-01T13:56:40;100390.94;;;6.07;71.58
49945;BME280;35838;49.134;9.212;2023-02-01T13:58:17;100395.09;;;6.01;71.82
49945;BME280;35838;49.134;9.212;2023-02-01T13:59:51;100393.28;;;5.98;71.79
49945;BME280;35838;49.134;9.212;2023-02-01T14:01:33;100398.16;;;5.86;72.16
49945;BME280;35838;49.134;9.212;2023-02-01T14:03:08;100405.03;;;5.85;72.63
49945;BME280;35838;49.134;9.212;2023-02-01T14:04:47;100395.66;;;5.89;73.03
49945;BME280;35838;49.134;9.212;2023-02-01T14:08:13;100408.22;;;5.75;73.65
49945;BME280;35838;49.134;9.212;2023-02-01T14:09:47;100403.06;;;5.75;73.76
49945;BME280;35838;49.134;9.212;2023-02-01T14:13:12;100421.91;;;5.74;74.34
49945;BME280;35838;49.134;9.212;2023-02-01T14:14:50;100404.63;;;5.70;74.18
49945;BME280;35838;49.134;9.212;2023-02-01T14:16:23;100409.03;;;5.74;74.14
49945;BME280;35838;49.134;9.212;2023-02-01T14:17:57;100407.31;;;5.74;74.26
49945;BME280;35838;49.134;9.212;2023-02-01T14:19:31;100428.03;;;5.79;74.57
49945;BME280;35838;49.134;9.212;2023-02-01T14:21:12;100417.72;;;5.79;74.24
49945;BME280;35838;49.134;9.212;2023-02-01T14:22:46;100458.25;;;5.86;74.00
49945;BME280;35838;49.134;9.212;2023-02-01T14:24:22;100424.59;;;5.78;73.44
49945;BME280;35838;49.134;9.212;2023-02-01T14:26:04;100416.69;;;5.71;73.78
49945;BME280;35838;49.134;9.212;2023-02-01T14:27:39;100413.38;;;5.75;73.85
49945;BME280;35838;49.134;9.212;2023-02-01T14:29:19;100423.66;;;5.75;73.86
49945;BME280;35838;49.134;9.212;2023-02-01T14:30:55;100424.47;;;5.72;74.04
49945;BME280;35838;49.134;9.212;2023-02-01T14:32:30;100423.56;;;5.70;74.51
49945;BME280;35838;49.134;9.212;2023-02-01T14:34:10;100416.63;;;5.68;74.50
49945;BME280;35838;49.134;9.212;2023-02-01T14:35:52;100419.25;;;5.71;74.38
49945;BME280;35838;49.134;9.212;2023-02-01T14:37:31;100416.56;;;5.66;74.42
49945;BME280;35838;49.134;9.212;2023-02-01T14:39:17;100420.88;;;5.65;74.26
49945;BME280;35838;49.134;9.212;2023-02-01T14:40:54;100420.84;;;5.64;74.61
49945;BME280;35838;49.134;9.212;2023-02-01T14:42:29;100418.22;;;5.62;74.57
49945;BME280;35838;49.134;9.212;2023-02-01T14:44:13;100418.25;;;5.64;74.66
49945;BME280;35838;49.134;9.212;2023-02-01T14:45:48;100428.56;;;5.64;74.87
49945;BME280;35838;49.134;9.212;2023-02-01T14:47:27;100426.72;;;5.58;74.74
49945;BME280;35838;49.134;9.212;2023-02-01T14:49:01;100424.13;;;5.58;74.78
49945;BME280;35838;49.134;9.212;2023-02-01T14:50:35;100414.69;;;5.59;74.97
49945;BME280;35838;49.134;9.212;2023-02-01T14:52:12;100424.91;;;5.56;74.68
49945;BME280;35838;49.134;9.212;2023-02-01T14:53:48;100406.03;;;5.55;75.06
49945;BME280;35838;49.134;9.212;2023-02-01T14:55:24;100422.41;;;5.59;75.07
49945;BME280;35838;49.134;9.212;2023-02-01T14:57:02;100415.56;;;5.59;74.97
49945;BME280;35838;49.134;9.212;2023-02-01T14:58:39;100421.56;;;5.58;74.72
49945;BME280;35838;49.134;9.212;2023-02-01T15:00:19;100420.88;;;5.65;74.82
49945;BME280;35838;49.134;9.212;2023-02-01T15:01:53;100413.84;;;5.58;74.73
49945;BME280;35838;49.134;9.212;2023-02-01T15:05:24;100418.28;;;5.65;74.63
49945;BME280;35838;49.134;9.212;2023-02-01T15:07:04;100427.66;;;5.62;73.77
49945;BME280;35838;49.134;9.212;2023-02-01T15:08:38;100417.50;;;5.68;73.59
49945;BME280;35838;49.134;9.212;2023-02-01T15:10:12;100417.47;;;5.67;73.57
49945;BME280;35838;49.134;9.212;2023-02-01T15:13:40;100428.72;;;5.70;73.25
49945;BME280;35838;49.134;9.212;2023-02-01T15:15:21;100417.47;;;5.67;72.94
49945;BME280;35838;49.134;9.212;2023-02-01T15:16:55;100426.03;;;5.67;72.92
49945;BME280;35838;49.134;9.212;2023-02-01T15:18:29;100416.53;;;5.64;72.63
49945;BME280;35838;49.134;9.212;2023-02-01T15:20:04;100409.88;;;5.73;72.52
49945;BME280;35838;49.134;9.212;2023-02-01T15:21:45;100409.78;;;5.70;72.21
49945;BME280;35838;49.134;9.212;2023-02-01T15:23:20;100426.94;;;5.68;72.33
49945;BME280;35838;49.134;9.212;2023-02-01T15:24:54;100409.75;;;5.67;72.08
49945;BME280;35838;49.134;9.212;2023-02-01T15:26:28;100423.44;;;5.65;72.05
49945;BME280;35838;49.134;9.212;2023-02-01T15:28:02;100415.72;;;5.65;72.05
49945;BME280;35838;49.134;9.212;2023-02-01T15:29:39;100432.00;;;5.64;71.78
49945;BME280;35838;49.134;9.212;2023-02-01T15:31:12;100428.66;;;5.69;71.89
49945;BME280;35838;49.134;9.212;2023-02-01T15:32:50;100428.66;;;5.69;71.59
49945;BME280;35838;49.134;9.212;2023-02-01T15:34:33;100423.66;;;5.75;71.33
49945;BME280;35838;49.134;9.212;2023-02-01T15:36:17;100424.53;;;5.75;70.74
49945;BME280;35838;49.134;9.212;2023-02-01T15:37:53;100441.72;;;5.76;70.27
49945;BME280;35838;49.134;9.212;2023-02-01T15:41:35;100439.34;;;5.84;70.59
49945;BME280;35838;49.134;9.212;2023-02-01T15:43:11;100440.03;;;5.77;70.27
49945;BME280;35838;49.134;9.212;2023-02-01T15:44:47;100444.28;;;5.75;70.42
49945;BME280;35838;49.134;9.212;2023-02-01T15:46:22;100452.75;;;5.71;70.75
49945;BME280;35838;49.134;9.212;2023-02-01T15:47:57;100440.75;;;5.71;70.52
49945;BME280;35838;49.134;9.212;2023-02-01T15:49:31;100445.03;;;5.71;70.73
49945;BME280;35838;49.134;9.212;2023-02-01T15:51:16;100447.59;;;5.71;70.63
49945;BME280;35838;49.134;9.212;2023-02-01T15:52:51;100448.53;;;5.74;70.86
49945;BME280;35838;49.134;9.212;2023-02-01T15:54:26;100461.59;;;5.80;70.87
49945;BME280;35838;49.134;9.212;2023-02-01T15:56:02;100448.63;;;5.77;70.96
49945;BME280;35838;49.134;9.212;2023-02-01T15:57:38;100466.69;;;5.79;70.98
49945;BME280;35838;49.134;9.212;2023-02-01T15:59:15;100457.97;;;5.74;70.72
49945;BME280;35838;49.134;9.212;2023-02-01T16:00:52;100445.94;;;5.73;70.92
49945;BME280;35838;49.134;9.212;2023-02-01T16:02:27;100445.13;;;5.75;71.39
49945;BME280;35838;49.134;9.212;2023-02-01T16:04:04;100445.03;;;5.71;71.50
49945;BME280;35838;49.134;9.212;2023-02-01T16:05:40;100446.75;;;5.72;71.99
49945;BME280;35838;49.134;9.212;2023-02-01T16:07:20;100452.75;;;5.71;72.31
49945;BME280;35838;49.134;9.212;2023-02-01T16:08:59;100444.19;;;5.72;72.13
49945;BME280;35838;49.134;9.212;2023-02-01T16:10:38;100450.13;;;5.68;72.19
49945;BME280;35838;49.134;9.212;2023-02-01T16:12:20;100446.53;;;5.62;72.51
49945;BME280;35838;49.134;9.212;2023-02-01T16:13:57;100448.28;;;5.63;72.26
49945;BME280;35838;49.134;9.212;2023-02-01T16:15:30;100437.16;;;5.64;72.51
49945;BME280;35838;49.134;9.212;2023-02-01T16:17:07;100436.44;;;5.70;72.56
49945;BME280;35838;49.134;9.212;2023-02-01T16:18:40;100446.59;;;5.64;72.25
49945;BME280;35838;49.134;9.212;2023-02-01T16:20:14;100459.41;;;5.62;72.29
49945;BME280;35838;49.134;9.212;2023-02-01T16:21:48;100443.03;;;5.60;72.28
49945;BME280;35838;49.134;9.212;2023-02-01T16:23:21;100445.78;;;5.67;72.48
49945;BME280;35838;49.134;9.212;2023-02-01T16:24:55;100449.19;;;5.65;72.17
49945;BME280;35838;49.134;9.212;2023-02-01T16:26:29;100449.09;;;5.62;71.73
49945;BME280;35838;49.134;9.212;2023-02-01T16:28:02;100452.69;;;5.68;71.73
49945;BME280;35838;49.134;9.212;2023-02-01T16:29:36;100446.47;;;5.59;72.07
49945;BME280;35838;49.134;9.212;2023-02-01T16:31:10;100456.91;;;5.64;71.91
49945;BME280;35838;49.134;9.212;2023-02-01T16:32:52;100441.47;;;5.65;71.91
49945;BME280;35838;49.134;9.212;2023-02-01T16:34:28;100457.75;;;5.64;71.60
49945;BME280;35838;49.134;9.212;2023-02-01T16:36:01;100447.47;;;5.66;71.33
49945;BME280;35838;49.134;9.212;2023-02-01T16:37:36;100452.69;;;5.68;71.54
49945;BME280;35838;49.134;9.212;2023-02-01T16:39:10;100462.81;;;5.61;71.63
49945;BME280;35838;49.134;9.212;2023-02-01T16:40:44;100455.91;;;5.60;71.36
49945;BME280;35838;49.134;9.212;2023-02-01T16:42:18;100459.41;;;5.62;71.78
49945;BME280;35838;49.134;9.212;2023-02-01T16:43:53;100450.13;;;5.69;71.57
49945;BME280;35838;49.134;9.212;2023-02-01T16:45:27;100445.69;;;5.63;71.33
49945;BME280;35838;49.134;9.212;2023-02-01T16:47:00;100457.97;;;5.74;71.42
49945;BME280;35838;49.134;9.212;2023-02-01T16:48:36;100451.16;;;5.76;71.48
49945;BME280;35838;49.134;9.212;2023-02-01T16:50:14;100446.63;;;5.65;71.41
49945;BME280;35838;49.134;9.212;2023-02-01T16:51:49;100451.81;;;5.69;71.20